Cairndow, United Kingdom
Current Conditions -  °F | °C
As of 10:20 AM on Saturday 20 Dec 2014 (Local Time) from EGEO Reporting Station
Moderate Rain Moderate Rain  
Wind Chill: 37°   Ceiling: 1800
Heat Index: 45°   Visibility: 5mi
Dew Point: 37°   Wind: 16mph
Humidity: 76%   Direction: 300°WNW
Pressure: 30.09"   Gusts: NA
Location:  56.25°N, 4.94°W
Report Text: EGEO 201020Z 30014KT 8000 RA FEW015 BKN018 07/03 Q1019
Loading
Personal Weather Stations






























Interactive Weather Map New forecast layout! Learn more

10-Day Weather Forecast

Advertisements
Track Severe Weather on mobile